sensor_id;sensor_type;location;lat;lon;timestamp;P1;durP1;ratioP1;P2;durP2;ratioP2
75912;SDS011;64592;52.168;21.040;2022-12-24T00:00:44;40.17;;;18.13;;
75912;SDS011;64592;52.168;21.040;2022-12-24T00:05:46;43.85;;;21.30;;
75912;SDS011;64592;52.168;21.040;2022-12-24T00:10:50;45.20;;;18.92;;
75912;SDS011;64592;52.168;21.040;2022-12-24T00:15:52;48.70;;;20.73;;
75912;SDS011;64592;52.168;21.040;2022-12-24T00:20:54;45.25;;;20.45;;
75912;SDS011;64592;52.168;21.040;2022-12-24T00:25:57;53.30;;;21.73;;
75912;SDS011;64592;52.168;21.040;2022-12-24T00:30:59;44.55;;;21.17;;
75912;SDS011;64592;52.168;21.040;2022-12-24T00:36:00;48.92;;;21.25;;
75912;SDS011;64592;52.168;21.040;2022-12-24T00:41:04;48.40;;;20.10;;
75912;SDS011;64592;52.168;21.040;2022-12-24T00:46:23;41.35;;;19.35;;
75912;SDS011;64592;52.168;21.040;2022-12-24T00:51:25;44.53;;;19.95;;
75912;SDS011;64592;52.168;21.040;2022-12-24T00:56:29;40.78;;;18.65;;
75912;SDS011;64592;52.168;21.040;2022-12-24T01:01:30;47.05;;;19.73;;
75912;SDS011;64592;52.168;21.040;2022-12-24T01:06:32;45.22;;;19.98;;
75912;SDS011;64592;52.168;21.040;2022-12-24T01:11:35;44.70;;;17.90;;
75912;SDS011;64592;52.168;21.040;2022-12-24T01:16:37;43.53;;;20.30;;
75912;SDS011;64592;52.168;21.040;2022-12-24T01:21:39;51.58;;;21.08;;
75912;SDS011;64592;52.168;21.040;2022-12-24T01:26:42;47.92;;;19.13;;
75912;SDS011;64592;52.168;21.040;2022-12-24T01:31:44;48.25;;;20.25;;
75912;SDS011;64592;52.168;21.040;2022-12-24T01:36:46;42.90;;;21.23;;
75912;SDS011;64592;52.168;21.040;2022-12-24T01:41:49;44.75;;;17.25;;
75912;SDS011;64592;52.168;21.040;2022-12-24T01:47:09;45.78;;;20.60;;
75912;SDS011;64592;52.168;21.040;2022-12-24T01:52:16;39.97;;;17.52;;
75912;SDS011;64592;52.168;21.040;2022-12-24T01:57:22;43.45;;;19.70;;
75912;SDS011;64592;52.168;21.040;2022-12-24T02:02:27;52.28;;;20.73;;
75912;SDS011;64592;52.168;21.040;2022-12-24T02:07:29;41.95;;;20.92;;
75912;SDS011;64592;52.168;21.040;2022-12-24T02:12:33;37.97;;;20.05;;
75912;SDS011;64592;52.168;21.040;2022-12-24T02:17:38;38.88;;;19.17;;
75912;SDS011;64592;52.168;21.040;2022-12-24T02:22:56;35.45;;;16.60;;
75912;SDS011;64592;52.168;21.040;2022-12-24T02:28:11;45.08;;;19.00;;
75912;SDS011;64592;52.168;21.040;2022-12-24T02:33:24;49.92;;;22.02;;
75912;SDS011;64592;52.168;21.040;2022-12-24T02:38:33;46.20;;;20.52;;
75912;SDS011;64592;52.168;21.040;2022-12-24T02:43:41;42.70;;;21.02;;
75912;SDS011;64592;52.168;21.040;2022-12-24T02:48:47;50.28;;;22.70;;
75912;SDS011;64592;52.168;21.040;2022-12-24T02:53:49;54.92;;;24.40;;
75912;SDS011;64592;52.168;21.040;2022-12-24T02:58:58;54.42;;;21.35;;
75912;SDS011;64592;52.168;21.040;2022-12-24T03:04:15;51.92;;;20.65;;
75912;SDS011;64592;52.168;21.040;2022-12-24T03:09:40;51.08;;;23.08;;
75912;SDS011;64592;52.168;21.040;2022-12-24T03:14:50;54.85;;;20.33;;
75912;SDS011;64592;52.168;21.040;2022-12-24T03:19:53;51.83;;;19.15;;
75912;SDS011;64592;52.168;21.040;2022-12-24T03:24:56;51.00;;;21.00;;
75912;SDS011;64592;52.168;21.040;2022-12-24T03:29:58;47.42;;;18.48;;
75912;SDS011;64592;52.168;21.040;2022-12-24T03:35:01;53.20;;;18.92;;
75912;SDS011;64592;52.168;21.040;2022-12-24T03:40:04;46.45;;;18.42;;
75912;SDS011;64592;52.168;21.040;2022-12-24T03:45:06;50.53;;;19.17;;
75912;SDS011;64592;52.168;21.040;2022-12-24T03:50:10;47.38;;;18.85;;
75912;SDS011;64592;52.168;21.040;2022-12-24T03:55:11;38.13;;;17.10;;
75912;SDS011;64592;52.168;21.040;2022-12-24T04:00:14;41.63;;;17.27;;
75912;SDS011;64592;52.168;21.040;2022-12-24T04:05:18;44.25;;;17.83;;
75912;SDS011;64592;52.168;21.040;2022-12-24T04:10:20;35.88;;;16.92;;
75912;SDS011;64592;52.168;21.040;2022-12-24T04:15:22;37.22;;;15.90;;
75912;SDS011;64592;52.168;21.040;2022-12-24T04:20:25;26.65;;;14.18;;
75912;SDS011;64592;52.168;21.040;2022-12-24T04:25:26;39.53;;;14.70;;
75912;SDS011;64592;52.168;21.040;2022-12-24T04:30:28;34.30;;;15.73;;
75912;SDS011;64592;52.168;21.040;2022-12-24T04:35:31;33.58;;;16.15;;
75912;SDS011;64592;52.168;21.040;2022-12-24T04:40:33;33.03;;;15.98;;
75912;SDS011;64592;52.168;21.040;2022-12-24T04:45:35;28.70;;;13.95;;
75912;SDS011;64592;52.168;21.040;2022-12-24T04:50:38;34.17;;;15.20;;
75912;SDS011;64592;52.168;21.040;2022-12-24T04:55:42;31.70;;;16.23;;
75912;SDS011;64592;52.168;21.040;2022-12-24T05:00:44;31.88;;;17.35;;
75912;SDS011;64592;52.168;21.040;2022-12-24T05:05:48;29.60;;;15.23;;
75912;SDS011;64592;52.168;21.040;2022-12-24T05:10:53;32.58;;;15.63;;
75912;SDS011;64592;52.168;21.040;2022-12-24T05:15:55;33.35;;;16.30;;
75912;SDS011;64592;52.168;21.040;2022-12-24T05:20:58;32.53;;;16.25;;
75912;SDS011;64592;52.168;21.040;2022-12-24T05:26:00;36.85;;;16.67;;
75912;SDS011;64592;52.168;21.040;2022-12-24T05:31:24;37.13;;;16.33;;
75912;SDS011;64592;52.168;21.040;2022-12-24T05:36:28;40.67;;;17.05;;
75912;SDS011;64592;52.168;21.040;2022-12-24T05:41:31;40.78;;;16.13;;
75912;SDS011;64592;52.168;21.040;2022-12-24T05:46:32;32.08;;;14.18;;
75912;SDS011;64592;52.168;21.040;2022-12-24T05:51:35;34.97;;;15.95;;
75912;SDS011;64592;52.168;21.040;2022-12-24T05:56:39;34.20;;;15.70;;
75912;SDS011;64592;52.168;21.040;2022-12-24T06:01:40;35.08;;;15.90;;
75912;SDS011;64592;52.168;21.040;2022-12-24T06:06:45;30.52;;;14.60;;
75912;SDS011;64592;52.168;21.040;2022-12-24T06:11:47;32.35;;;15.43;;
75912;SDS011;64592;52.168;21.040;2022-12-24T06:16:49;37.25;;;16.95;;
75912;SDS011;64592;52.168;21.040;2022-12-24T06:21:52;32.53;;;15.02;;
75912;SDS011;64592;52.168;21.040;2022-12-24T06:26:54;31.92;;;13.65;;
75912;SDS011;64592;52.168;21.040;2022-12-24T06:31:55;37.25;;;15.00;;
75912;SDS011;64592;52.168;21.040;2022-12-24T06:36:58;35.33;;;14.45;;
75912;SDS011;64592;52.168;21.040;2022-12-24T06:42:00;25.15;;;10.90;;
75912;SDS011;64592;52.168;21.040;2022-12-24T06:47:02;29.45;;;13.95;;
75912;SDS011;64592;52.168;21.040;2022-12-24T06:52:05;30.67;;;13.68;;
75912;SDS011;64592;52.168;21.040;2022-12-24T06:57:07;27.13;;;13.55;;
75912;SDS011;64592;52.168;21.040;2022-12-24T07:02:09;22.70;;;11.40;;
75912;SDS011;64592;52.168;21.040;2022-12-24T07:07:12;31.27;;;13.35;;
75912;SDS011;64592;52.168;21.040;2022-12-24T07:12:14;31.75;;;14.18;;
75912;SDS011;64592;52.168;21.040;2022-12-24T07:17:15;27.83;;;13.60;;
75912;SDS011;64592;52.168;21.040;2022-12-24T07:22:18;32.90;;;13.68;;
75912;SDS011;64592;52.168;21.040;2022-12-24T07:27:20;28.33;;;13.82;;
75912;SDS011;64592;52.168;21.040;2022-12-24T07:32:22;30.67;;;13.32;;
75912;SDS011;64592;52.168;21.040;2022-12-24T07:37:25;29.38;;;14.00;;
75912;SDS011;64592;52.168;21.040;2022-12-24T07:42:27;36.95;;;14.35;;
75912;SDS011;64592;52.168;21.040;2022-12-24T07:47:28;33.42;;;13.93;;
75912;SDS011;64592;52.168;21.040;2022-12-24T07:52:31;31.65;;;11.45;;
75912;SDS011;64592;52.168;21.040;2022-12-24T07:57:33;31.75;;;14.30;;
75912;SDS011;64592;52.168;21.040;2022-12-24T08:02:35;31.02;;;12.88;;
75912;SDS011;64592;52.168;21.040;2022-12-24T08:07:39;33.72;;;14.02;;
75912;SDS011;64592;52.168;21.040;2022-12-24T08:12:40;31.42;;;12.77;;
75912;SDS011;64592;52.168;21.040;2022-12-24T08:17:42;34.67;;;14.85;;
75912;SDS011;64592;52.168;21.040;2022-12-24T08:22:46;30.42;;;13.77;;
75912;SDS011;64592;52.168;21.040;2022-12-24T08:27:47;32.63;;;14.82;;
75912;SDS011;64592;52.168;21.040;2022-12-24T08:32:49;23.92;;;12.98;;
75912;SDS011;64592;52.168;21.040;2022-12-24T08:37:52;27.52;;;12.45;;
75912;SDS011;64592;52.168;21.040;2022-12-24T08:42:54;35.13;;;14.35;;
75912;SDS011;64592;52.168;21.040;2022-12-24T08:47:57;29.42;;;14.20;;
75912;SDS011;64592;52.168;21.040;2022-12-24T08:53:03;30.67;;;12.90;;
75912;SDS011;64592;52.168;21.040;2022-12-24T08:58:05;27.90;;;13.18;;
75912;SDS011;64592;52.168;21.040;2022-12-24T09:03:09;28.38;;;14.18;;
75912;SDS011;64592;52.168;21.040;2022-12-24T09:08:15;33.40;;;14.27;;
75912;SDS011;64592;52.168;21.040;2022-12-24T09:13:16;24.02;;;11.85;;
75912;SDS011;64592;52.168;21.040;2022-12-24T09:18:18;30.98;;;12.73;;
75912;SDS011;64592;52.168;21.040;2022-12-24T09:23:21;28.42;;;12.73;;
75912;SDS011;64592;52.168;21.040;2022-12-24T09:28:23;25.48;;;12.50;;
75912;SDS011;64592;52.168;21.040;2022-12-24T09:33:24;26.38;;;11.80;;
75912;SDS011;64592;52.168;21.040;2022-12-24T09:38:28;20.52;;;10.38;;
75912;SDS011;64592;52.168;21.040;2022-12-24T09:43:30;24.00;;;10.82;;
75912;SDS011;64592;52.168;21.040;2022-12-24T09:48:35;22.13;;;11.95;;
75912;SDS011;64592;52.168;21.040;2022-12-24T09:53:44;23.00;;;11.80;;
75912;SDS011;64592;52.168;21.040;2022-12-24T09:58:52;20.90;;;9.65;;
75912;SDS011;64592;52.168;21.040;2022-12-24T10:09:06;17.73;;;9.35;;
75912;SDS011;64592;52.168;21.040;2022-12-24T10:14:22;17.02;;;10.15;;
75912;SDS011;64592;52.168;21.040;2022-12-24T10:19:32;19.08;;;10.60;;
75912;SDS011;64592;52.168;21.040;2022-12-24T10:24:46;18.48;;;10.07;;
75912;SDS011;64592;52.168;21.040;2022-12-24T10:29:57;18.23;;;8.93;;
75912;SDS011;64592;52.168;21.040;2022-12-24T10:35:05;21.58;;;9.55;;
75912;SDS011;64592;52.168;21.040;2022-12-24T10:40:24;19.42;;;9.52;;
75912;SDS011;64592;52.168;21.040;2022-12-24T10:45:33;19.95;;;10.10;;
75912;SDS011;64592;52.168;21.040;2022-12-24T10:50:40;18.02;;;9.27;;
75912;SDS011;64592;52.168;21.040;2022-12-24T10:56:00;17.15;;;8.70;;
75912;SDS011;64592;52.168;21.040;2022-12-24T11:01:04;15.35;;;9.18;;
75912;SDS011;64592;52.168;21.040;2022-12-24T11:06:08;19.02;;;9.13;;
75912;SDS011;64592;52.168;21.040;2022-12-24T11:11:14;18.33;;;10.40;;
75912;SDS011;64592;52.168;21.040;2022-12-24T11:16:19;17.05;;;7.63;;
75912;SDS011;64592;52.168;21.040;2022-12-24T11:21:25;16.75;;;8.75;;
75912;SDS011;64592;52.168;21.040;2022-12-24T11:26:30;15.23;;;8.77;;
75912;SDS011;64592;52.168;21.040;2022-12-24T11:31:31;17.50;;;9.30;;
75912;SDS011;64592;52.168;21.040;2022-12-24T11:36:36;16.33;;;8.73;;
75912;SDS011;64592;52.168;21.040;2022-12-24T11:41:39;17.80;;;8.63;;
75912;SDS011;64592;52.168;21.040;2022-12-24T11:46:42;16.88;;;8.40;;
75912;SDS011;64592;52.168;21.040;2022-12-24T11:51:57;21.17;;;11.27;;
75912;SDS011;64592;52.168;21.040;2022-12-24T11:57:13;18.95;;;9.88;;
75912;SDS011;64592;52.168;21.040;2022-12-24T12:02:17;19.92;;;9.23;;
75912;SDS011;64592;52.168;21.040;2022-12-24T12:07:24;25.48;;;9.15;;
75912;SDS011;64592;52.168;21.040;2022-12-24T12:12:31;24.65;;;10.68;;
75912;SDS011;64592;52.168;21.040;2022-12-24T12:17:38;22.52;;;10.05;;
75912;SDS011;64592;52.168;21.040;2022-12-24T12:22:54;23.38;;;11.32;;
75912;SDS011;64592;52.168;21.040;2022-12-24T12:28:02;25.30;;;10.88;;
75912;SDS011;64592;52.168;21.040;2022-12-24T12:33:14;22.55;;;10.90;;
75912;SDS011;64592;52.168;21.040;2022-12-24T12:38:23;24.83;;;10.35;;
75912;SDS011;64592;52.168;21.040;2022-12-24T12:43:34;22.23;;;9.82;;
75912;SDS011;64592;52.168;21.040;2022-12-24T12:48:59;24.92;;;10.80;;
75912;SDS011;64592;52.168;21.040;2022-12-24T12:54:15;25.58;;;12.38;;
75912;SDS011;64592;52.168;21.040;2022-12-24T12:59:31;26.83;;;11.88;;
75912;SDS011;64592;52.168;21.040;2022-12-24T13:04:47;28.65;;;12.52;;
75912;SDS011;64592;52.168;21.040;2022-12-24T13:10:06;18.50;;;9.73;;
75912;SDS011;64592;52.168;21.040;2022-12-24T13:15:26;24.13;;;11.07;;
75912;SDS011;64592;52.168;21.040;2022-12-24T13:20:37;19.65;;;9.48;;
75912;SDS011;64592;52.168;21.040;2022-12-24T13:25:42;25.45;;;10.55;;
75912;SDS011;64592;52.168;21.040;2022-12-24T13:30:47;29.50;;;12.75;;
75912;SDS011;64592;52.168;21.040;2022-12-24T13:35:57;22.23;;;12.13;;
75912;SDS011;64592;52.168;21.040;2022-12-24T13:46:56;19.42;;;10.57;;
75912;SDS011;64592;52.168;21.040;2022-12-24T13:52:05;22.90;;;11.38;;
75912;SDS011;64592;52.168;21.040;2022-12-24T13:57:21;19.92;;;10.82;;
75912;SDS011;64592;52.168;21.040;2022-12-24T14:02:29;22.73;;;10.70;;
75912;SDS011;64592;52.168;21.040;2022-12-24T14:07:35;22.45;;;11.40;;
75912;SDS011;64592;52.168;21.040;2022-12-24T14:12:46;25.92;;;12.98;;
75912;SDS011;64592;52.168;21.040;2022-12-24T14:17:51;22.00;;;11.80;;
75912;SDS011;64592;52.168;21.040;2022-12-24T14:22:53;20.25;;;10.35;;
75912;SDS011;64592;52.168;21.040;2022-12-24T14:27:57;30.65;;;13.07;;
75912;SDS011;64592;52.168;21.040;2022-12-24T14:33:04;28.23;;;14.35;;
75912;SDS011;64592;52.168;21.040;2022-12-24T14:38:07;27.20;;;13.77;;
75912;SDS011;64592;52.168;21.040;2022-12-24T14:43:19;25.27;;;11.35;;
75912;SDS011;64592;52.168;21.040;2022-12-24T14:48:29;25.08;;;11.70;;
75912;SDS011;64592;52.168;21.040;2022-12-24T14:53:42;28.20;;;12.05;;
75912;SDS011;64592;52.168;21.040;2022-12-24T14:59:01;26.02;;;13.07;;
75912;SDS011;64592;52.168;21.040;2022-12-24T15:04:16;26.63;;;11.60;;
75912;SDS011;64592;52.168;21.040;2022-12-24T15:09:19;28.30;;;12.70;;
75912;SDS011;64592;52.168;21.040;2022-12-24T15:14:23;35.45;;;14.38;;
75912;SDS011;64592;52.168;21.040;2022-12-24T15:19:32;44.70;;;17.10;;
75912;SDS011;64592;52.168;21.040;2022-12-24T15:24:43;40.97;;;18.67;;
75912;SDS011;64592;52.168;21.040;2022-12-24T15:29:47;41.95;;;17.00;;
75912;SDS011;64592;52.168;21.040;2022-12-24T15:34:54;43.47;;;17.85;;
75912;SDS011;64592;52.168;21.040;2022-12-24T15:39:57;40.50;;;15.48;;
75912;SDS011;64592;52.168;21.040;2022-12-24T15:45:11;38.03;;;16.08;;
75912;SDS011;64592;52.168;21.040;2022-12-24T15:50:17;42.85;;;15.30;;
75912;SDS011;64592;52.168;21.040;2022-12-24T15:55:24;40.58;;;15.93;;
75912;SDS011;64592;52.168;21.040;2022-12-24T16:00:27;37.60;;;17.27;;
75912;SDS011;64592;52.168;21.040;2022-12-24T16:05:33;36.75;;;14.93;;
75912;SDS011;64592;52.168;21.040;2022-12-24T16:10:38;34.67;;;14.70;;
75912;SDS011;64592;52.168;21.040;2022-12-24T16:15:43;44.58;;;15.60;;
75912;SDS011;64592;52.168;21.040;2022-12-24T16:20:49;34.72;;;14.57;;
75912;SDS011;64592;52.168;21.040;2022-12-24T16:25:52;42.80;;;17.35;;
75912;SDS011;64592;52.168;21.040;2022-12-24T16:30:54;37.78;;;14.55;;
75912;SDS011;64592;52.168;21.040;2022-12-24T16:35:58;43.90;;;15.63;;
75912;SDS011;64592;52.168;21.040;2022-12-24T16:41:00;43.55;;;19.33;;
75912;SDS011;64592;52.168;21.040;2022-12-24T16:46:02;43.17;;;17.23;;
75912;SDS011;64592;52.168;21.040;2022-12-24T16:51:08;47.40;;;19.80;;
75912;SDS011;64592;52.168;21.040;2022-12-24T16:56:10;45.95;;;17.80;;
75912;SDS011;64592;52.168;21.040;2022-12-24T17:01:11;44.70;;;20.65;;
75912;SDS011;64592;52.168;21.040;2022-12-24T17:06:14;40.70;;;15.60;;
75912;SDS011;64592;52.168;21.040;2022-12-24T17:11:16;42.58;;;19.10;;
75912;SDS011;64592;52.168;21.040;2022-12-24T17:16:22;39.38;;;19.17;;
75912;SDS011;64592;52.168;21.040;2022-12-24T17:21:25;45.22;;;18.95;;
75912;SDS011;64592;52.168;21.040;2022-12-24T17:26:27;40.58;;;17.58;;
75912;SDS011;64592;52.168;21.040;2022-12-24T17:31:29;41.28;;;16.92;;
75912;SDS011;64592;52.168;21.040;2022-12-24T17:36:33;38.15;;;17.02;;
75912;SDS011;64592;52.168;21.040;2022-12-24T17:41:35;36.03;;;16.58;;
75912;SDS011;64592;52.168;21.040;2022-12-24T17:46:37;46.88;;;17.98;;
75912;SDS011;64592;52.168;21.040;2022-12-24T17:51:40;32.75;;;14.93;;
75912;SDS011;64592;52.168;21.040;2022-12-24T17:56:43;41.83;;;17.40;;
75912;SDS011;64592;52.168;21.040;2022-12-24T18:01:45;38.38;;;18.50;;
75912;SDS011;64592;52.168;21.040;2022-12-24T18:06:48;37.95;;;14.80;;
75912;SDS011;64592;52.168;21.040;2022-12-24T18:11:49;36.60;;;15.93;;
75912;SDS011;64592;52.168;21.040;2022-12-24T18:16:51;37.53;;;15.82;;
75912;SDS011;64592;52.168;21.040;2022-12-24T18:21:54;36.00;;;15.48;;
75912;SDS011;64592;52.168;21.040;2022-12-24T18:26:56;43.15;;;16.38;;
75912;SDS011;64592;52.168;21.040;2022-12-24T18:31:58;40.28;;;17.15;;
75912;SDS011;64592;52.168;21.040;2022-12-24T18:37:01;44.83;;;17.25;;
75912;SDS011;64592;52.168;21.040;2022-12-24T18:42:03;34.03;;;16.35;;
75912;SDS011;64592;52.168;21.040;2022-12-24T18:47:04;42.17;;;16.75;;
75912;SDS011;64592;52.168;21.040;2022-12-24T18:52:09;35.88;;;15.30;;
75912;SDS011;64592;52.168;21.040;2022-12-24T18:57:11;39.72;;;16.23;;
75912;SDS011;64592;52.168;21.040;2022-12-24T19:02:12;32.45;;;15.55;;
75912;SDS011;64592;52.168;21.040;2022-12-24T19:07:15;29.70;;;12.15;;
75912;SDS011;64592;52.168;21.040;2022-12-24T19:12:17;38.47;;;14.88;;
75912;SDS011;64592;52.168;21.040;2022-12-24T19:17:19;32.88;;;15.02;;
75912;SDS011;64592;52.168;21.040;2022-12-24T19:22:22;33.60;;;16.83;;
75912;SDS011;64592;52.168;21.040;2022-12-24T19:27:26;37.25;;;15.88;;
75912;SDS011;64592;52.168;21.040;2022-12-24T19:32:28;35.33;;;14.85;;
75912;SDS011;64592;52.168;21.040;2022-12-24T19:37:31;31.58;;;15.13;;
75912;SDS011;64592;52.168;21.040;2022-12-24T19:42:33;29.02;;;14.60;;
75912;SDS011;64592;52.168;21.040;2022-12-24T19:47:34;35.20;;;15.35;;
75912;SDS011;64592;52.168;21.040;2022-12-24T19:52:37;32.08;;;14.18;;
75912;SDS011;64592;52.168;21.040;2022-12-24T19:57:39;32.40;;;14.38;;
75912;SDS011;64592;52.168;21.040;2022-12-24T20:02:41;29.50;;;14.00;;
75912;SDS011;64592;52.168;21.040;2022-12-24T20:07:44;28.25;;;12.93;;
75912;SDS011;64592;52.168;21.040;2022-12-24T20:12:46;36.40;;;14.80;;
75912;SDS011;64592;52.168;21.040;2022-12-24T20:17:48;25.73;;;13.95;;
75912;SDS011;64592;52.168;21.040;2022-12-24T20:22:52;31.27;;;14.50;;
75912;SDS011;64592;52.168;21.040;2022-12-24T20:27:54;32.08;;;14.82;;
75912;SDS011;64592;52.168;21.040;2022-12-24T20:32:56;35.97;;;15.82;;
75912;SDS011;64592;52.168;21.040;2022-12-24T20:37:59;28.50;;;13.85;;
75912;SDS011;64592;52.168;21.040;2022-12-24T20:43:01;29.92;;;15.38;;
75912;SDS011;64592;52.168;21.040;2022-12-24T20:48:03;33.85;;;15.45;;
75912;SDS011;64592;52.168;21.040;2022-12-24T20:53:06;33.90;;;15.32;;
75912;SDS011;64592;52.168;21.040;2022-12-24T20:58:08;40.65;;;17.15;;
75912;SDS011;64592;52.168;21.040;2022-12-24T21:03:12;34.70;;;15.82;;
75912;SDS011;64592;52.168;21.040;2022-12-24T21:08:15;35.65;;;15.43;;
75912;SDS011;64592;52.168;21.040;2022-12-24T21:13:17;32.53;;;14.43;;
75912;SDS011;64592;52.168;21.040;2022-12-24T21:18:18;34.90;;;15.55;;
75912;SDS011;64592;52.168;21.040;2022-12-24T21:23:22;30.45;;;15.48;;
75912;SDS011;64592;52.168;21.040;2022-12-24T21:28:24;33.97;;;15.25;;
75912;SDS011;64592;52.168;21.040;2022-12-24T21:33:26;36.70;;;16.83;;
75912;SDS011;64592;52.168;21.040;2022-12-24T21:38:29;32.83;;;15.95;;
75912;SDS011;64592;52.168;21.040;2022-12-24T21:43:31;37.72;;;16.77;;
75912;SDS011;64592;52.168;21.040;2022-12-24T21:48:34;32.40;;;17.70;;
75912;SDS011;64592;52.168;21.040;2022-12-24T21:53:55;33.80;;;17.05;;
75912;SDS011;64592;52.168;21.040;2022-12-24T21:59:15;33.97;;;14.98;;
75912;SDS011;64592;52.168;21.040;2022-12-24T22:04:16;37.40;;;17.80;;
75912;SDS011;64592;52.168;21.040;2022-12-24T22:09:19;35.40;;;16.85;;
75912;SDS011;64592;52.168;21.040;2022-12-24T22:14:39;37.58;;;16.55;;
75912;SDS011;64592;52.168;21.040;2022-12-24T22:19:40;37.67;;;17.98;;
75912;SDS011;64592;52.168;21.040;2022-12-24T22:24:43;37.20;;;17.13;;
75912;SDS011;64592;52.168;21.040;2022-12-24T22:29:45;34.00;;;15.55;;
75912;SDS011;64592;52.168;21.040;2022-12-24T22:34:47;39.97;;;18.90;;
75912;SDS011;64592;52.168;21.040;2022-12-24T22:39:51;40.10;;;19.02;;
75912;SDS011;64592;52.168;21.040;2022-12-24T22:44:52;40.63;;;18.33;;
75912;SDS011;64592;52.168;21.040;2022-12-24T22:49:54;42.97;;;16.92;;
75912;SDS011;64592;52.168;21.040;2022-12-24T22:54:57;38.90;;;16.92;;
75912;SDS011;64592;52.168;21.040;2022-12-24T22:59:59;36.72;;;17.55;;
75912;SDS011;64592;52.168;21.040;2022-12-24T23:05:01;37.40;;;17.92;;
75912;SDS011;64592;52.168;21.040;2022-12-24T23:10:04;38.33;;;19.23;;
75912;SDS011;64592;52.168;21.040;2022-12-24T23:15:07;33.53;;;18.77;;
75912;SDS011;64592;52.168;21.040;2022-12-24T23:20:10;37.50;;;18.00;;
75912;SDS011;64592;52.168;21.040;2022-12-24T23:25:13;40.00;;;17.08;;
75912;SDS011;64592;52.168;21.040;2022-12-24T23:30:14;36.97;;;17.58;;
75912;SDS011;64592;52.168;21.040;2022-12-24T23:35:16;34.05;;;16.10;;
75912;SDS011;64592;52.168;21.040;2022-12-24T23:40:19;40.67;;;17.08;;
75912;SDS011;64592;52.168;21.040;2022-12-24T23:45:21;33.90;;;16.50;;
75912;SDS011;64592;52.168;21.040;2022-12-24T23:50:23;39.03;;;17.30;;
75912;SDS011;64592;52.168;21.040;2022-12-24T23:55:26;37.13;;;16.50;;
